sensor_id;sensor_type;location;lat;lon;timestamp;P1;durP1;ratioP1;P2;durP2;ratioP2
21810;SDS011;11067;48.788;9.208;2022-11-13T00:01:15;26.70;;;16.08;;
21810;SDS011;11067;48.788;9.208;2022-11-13T00:03:41;25.85;;;14.95;;
21810;SDS011;11067;48.788;9.208;2022-11-13T00:06:08;22.52;;;13.52;;
21810;SDS011;11067;48.788;9.208;2022-11-13T00:08:34;20.27;;;13.70;;
21810;SDS011;11067;48.788;9.208;2022-11-13T00:11:10;22.13;;;13.10;;
21810;SDS011;11067;48.788;9.208;2022-11-13T00:13:37;21.27;;;12.60;;
21810;SDS011;11067;48.788;9.208;2022-11-13T00:16:04;20.80;;;12.38;;
21810;SDS011;11067;48.788;9.208;2022-11-13T00:18:33;20.98;;;12.10;;
21810;SDS011;11067;48.788;9.208;2022-11-13T00:23:31;21.98;;;12.80;;
21810;SDS011;11067;48.788;9.208;2022-11-13T00:26:02;22.42;;;12.32;;
21810;SDS011;11067;48.788;9.208;2022-11-13T00:28:28;25.63;;;12.37;;
21810;SDS011;11067;48.788;9.208;2022-11-13T00:30:57;20.17;;;12.25;;
21810;SDS011;11067;48.788;9.208;2022-11-13T00:33:24;20.75;;;11.95;;
21810;SDS011;11067;48.788;9.208;2022-11-13T00:35:50;17.38;;;11.82;;
21810;SDS011;11067;48.788;9.208;2022-11-13T00:38:16;18.87;;;12.10;;
21810;SDS011;11067;48.788;9.208;2022-11-13T00:40:42;19.10;;;12.65;;
21810;SDS011;11067;48.788;9.208;2022-11-13T00:43:08;19.65;;;12.95;;
21810;SDS011;11067;48.788;9.208;2022-11-13T00:45:34;21.38;;;13.32;;
21810;SDS011;11067;48.788;9.208;2022-11-13T00:47:59;22.20;;;13.87;;
21810;SDS011;11067;48.788;9.208;2022-11-13T00:50:26;19.90;;;12.73;;
21810;SDS011;11067;48.788;9.208;2022-11-13T00:52:52;21.10;;;12.37;;
21810;SDS011;11067;48.788;9.208;2022-11-13T00:55:18;20.02;;;12.95;;
21810;SDS011;11067;48.788;9.208;2022-11-13T00:57:44;21.40;;;13.40;;
21810;SDS011;11067;48.788;9.208;2022-11-13T01:00:10;23.05;;;13.23;;
21810;SDS011;11067;48.788;9.208;2022-11-13T01:02:36;20.25;;;12.60;;
21810;SDS011;11067;48.788;9.208;2022-11-13T01:05:02;23.55;;;14.15;;
21810;SDS011;11067;48.788;9.208;2022-11-13T01:07:28;25.63;;;13.57;;
21810;SDS011;11067;48.788;9.208;2022-11-13T01:09:54;26.13;;;14.10;;
21810;SDS011;11067;48.788;9.208;2022-11-13T01:12:20;25.37;;;14.37;;
21810;SDS011;11067;48.788;9.208;2022-11-13T01:14:46;36.20;;;16.35;;
21810;SDS011;11067;48.788;9.208;2022-11-13T01:17:12;38.65;;;15.35;;
21810;SDS011;11067;48.788;9.208;2022-11-13T01:19:38;104.68;;;19.45;;
21810;SDS011;11067;48.788;9.208;2022-11-13T01:22:04;78.80;;;19.43;;
21810;SDS011;11067;48.788;9.208;2022-11-13T01:24:30;51.38;;;16.65;;
21810;SDS011;11067;48.788;9.208;2022-11-13T01:26:56;83.68;;;19.63;;
21810;SDS011;11067;48.788;9.208;2022-11-13T01:29:22;44.17;;;16.90;;
21810;SDS011;11067;48.788;9.208;2022-11-13T01:31:48;66.78;;;18.00;;
21810;SDS011;11067;48.788;9.208;2022-11-13T01:34:14;110.15;;;21.90;;
21810;SDS011;11067;48.788;9.208;2022-11-13T01:36:40;46.45;;;15.55;;
21810;SDS011;11067;48.788;9.208;2022-11-13T01:39:06;101.90;;;21.83;;
21810;SDS011;11067;48.788;9.208;2022-11-13T01:41:32;97.38;;;20.25;;
21810;SDS011;11067;48.788;9.208;2022-11-13T01:43:58;86.72;;;19.50;;
21810;SDS011;11067;48.788;9.208;2022-11-13T01:46:34;55.92;;;17.20;;
21810;SDS011;11067;48.788;9.208;2022-11-13T01:49:11;81.35;;;20.40;;
21810;SDS011;11067;48.788;9.208;2022-11-13T01:51:41;41.38;;;15.00;;
21810;SDS011;11067;48.788;9.208;2022-11-13T01:54:14;35.67;;;15.10;;
21810;SDS011;11067;48.788;9.208;2022-11-13T01:56:41;98.18;;;21.30;;
21810;SDS011;11067;48.788;9.208;2022-11-13T01:59:09;36.17;;;14.10;;
21810;SDS011;11067;48.788;9.208;2022-11-13T02:01:36;63.83;;;17.33;;
21810;SDS011;11067;48.788;9.208;2022-11-13T02:04:02;43.88;;;15.45;;
21810;SDS011;11067;48.788;9.208;2022-11-13T02:06:35;66.55;;;17.30;;
21810;SDS011;11067;48.788;9.208;2022-11-13T02:09:05;79.78;;;19.27;;
21810;SDS011;11067;48.788;9.208;2022-11-13T02:11:32;120.07;;;21.60;;
21810;SDS011;11067;48.788;9.208;2022-11-13T02:13:58;137.38;;;22.25;;
21810;SDS011;11067;48.788;9.208;2022-11-13T02:16:25;136.88;;;24.20;;
21810;SDS011;11067;48.788;9.208;2022-11-13T02:18:51;122.80;;;21.63;;
21810;SDS011;11067;48.788;9.208;2022-11-13T02:21:37;85.13;;;19.88;;
21810;SDS011;11067;48.788;9.208;2022-11-13T02:26:34;106.88;;;20.80;;
21810;SDS011;11067;48.788;9.208;2022-11-13T02:29:00;84.82;;;19.60;;
21810;SDS011;11067;48.788;9.208;2022-11-13T02:31:26;172.77;;;24.02;;
21810;SDS011;11067;48.788;9.208;2022-11-13T02:33:52;136.45;;;23.27;;
21810;SDS011;11067;48.788;9.208;2022-11-13T02:36:19;223.45;;;31.27;;
21810;SDS011;11067;48.788;9.208;2022-11-13T02:38:45;116.32;;;21.45;;
21810;SDS011;11067;48.788;9.208;2022-11-13T02:41:12;99.80;;;20.77;;
21810;SDS011;11067;48.788;9.208;2022-11-13T02:43:38;129.32;;;22.42;;
21810;SDS011;11067;48.788;9.208;2022-11-13T02:46:04;79.32;;;18.70;;
21810;SDS011;11067;48.788;9.208;2022-11-13T02:48:30;145.23;;;23.77;;
21810;SDS011;11067;48.788;9.208;2022-11-13T02:50:56;101.90;;;20.48;;
21810;SDS011;11067;48.788;9.208;2022-11-13T02:53:22;78.85;;;18.70;;
21810;SDS011;11067;48.788;9.208;2022-11-13T02:55:48;87.73;;;21.23;;
21810;SDS011;11067;48.788;9.208;2022-11-13T02:58:14;67.65;;;16.98;;
21810;SDS011;11067;48.788;9.208;2022-11-13T03:00:40;145.50;;;26.33;;
21810;SDS011;11067;48.788;9.208;2022-11-13T03:03:05;179.35;;;30.90;;
21810;SDS011;11067;48.788;9.208;2022-11-13T03:05:31;161.45;;;27.70;;
21810;SDS011;11067;48.788;9.208;2022-11-13T03:07:57;138.60;;;24.60;;
21810;SDS011;11067;48.788;9.208;2022-11-13T03:10:23;228.18;;;32.17;;
21810;SDS011;11067;48.788;9.208;2022-11-13T03:12:49;130.20;;;23.70;;
21810;SDS011;11067;48.788;9.208;2022-11-13T03:15:15;156.32;;;23.13;;
21810;SDS011;11067;48.788;9.208;2022-11-13T03:17:41;161.73;;;29.40;;
21810;SDS011;11067;48.788;9.208;2022-11-13T03:20:07;255.10;;;31.88;;
21810;SDS011;11067;48.788;9.208;2022-11-13T03:22:33;235.75;;;32.50;;
21810;SDS011;11067;48.788;9.208;2022-11-13T03:24:59;127.50;;;24.95;;
21810;SDS011;11067;48.788;9.208;2022-11-13T03:27:25;125.60;;;24.30;;
21810;SDS011;11067;48.788;9.208;2022-11-13T03:29:51;218.68;;;33.92;;
21810;SDS011;11067;48.788;9.208;2022-11-13T03:32:17;135.55;;;25.15;;
21810;SDS011;11067;48.788;9.208;2022-11-13T03:34:43;128.30;;;24.08;;
21810;SDS011;11067;48.788;9.208;2022-11-13T03:37:09;116.47;;;23.37;;
21810;SDS011;11067;48.788;9.208;2022-11-13T03:39:35;196.02;;;28.52;;
21810;SDS011;11067;48.788;9.208;2022-11-13T03:42:01;140.48;;;22.92;;
21810;SDS011;11067;48.788;9.208;2022-11-13T03:44:27;135.93;;;23.73;;
21810;SDS011;11067;48.788;9.208;2022-11-13T03:46:53;126.75;;;23.63;;
21810;SDS011;11067;48.788;9.208;2022-11-13T03:49:19;131.73;;;23.55;;
21810;SDS011;11067;48.788;9.208;2022-11-13T03:51:45;75.80;;;18.58;;
21810;SDS011;11067;48.788;9.208;2022-11-13T03:54:11;77.22;;;18.17;;
21810;SDS011;11067;48.788;9.208;2022-11-13T03:56:37;47.83;;;16.48;;
21810;SDS011;11067;48.788;9.208;2022-11-13T03:59:03;104.57;;;22.42;;
21810;SDS011;11067;48.788;9.208;2022-11-13T04:01:28;113.07;;;21.05;;
21810;SDS011;11067;48.788;9.208;2022-11-13T04:03:54;56.07;;;16.03;;
21810;SDS011;11067;48.788;9.208;2022-11-13T04:06:20;108.38;;;20.42;;
21810;SDS011;11067;48.788;9.208;2022-11-13T04:08:46;93.60;;;18.70;;
21810;SDS011;11067;48.788;9.208;2022-11-13T04:11:12;109.13;;;18.35;;
21810;SDS011;11067;48.788;9.208;2022-11-13T04:13:38;65.47;;;16.77;;
21810;SDS011;11067;48.788;9.208;2022-11-13T04:16:04;61.72;;;18.38;;
21810;SDS011;11067;48.788;9.208;2022-11-13T04:18:30;97.70;;;21.27;;
21810;SDS011;11067;48.788;9.208;2022-11-13T04:21:00;109.10;;;22.15;;
21810;SDS011;11067;48.788;9.208;2022-11-13T04:23:27;80.75;;;17.90;;
21810;SDS011;11067;48.788;9.208;2022-11-13T04:25:53;55.45;;;17.42;;
21810;SDS011;11067;48.788;9.208;2022-11-13T04:28:19;84.80;;;20.95;;
21810;SDS011;11067;48.788;9.208;2022-11-13T04:30:45;66.40;;;18.15;;
21810;SDS011;11067;48.788;9.208;2022-11-13T04:33:11;41.40;;;19.37;;
21810;SDS011;11067;48.788;9.208;2022-11-13T04:35:36;39.45;;;18.60;;
21810;SDS011;11067;48.788;9.208;2022-11-13T04:38:03;29.73;;;16.17;;
21810;SDS011;11067;48.788;9.208;2022-11-13T04:40:29;25.00;;;13.83;;
21810;SDS011;11067;48.788;9.208;2022-11-13T04:42:55;33.67;;;15.43;;
21810;SDS011;11067;48.788;9.208;2022-11-13T04:45:22;25.25;;;14.13;;
21810;SDS011;11067;48.788;9.208;2022-11-13T04:47:48;27.40;;;14.75;;
21810;SDS011;11067;48.788;9.208;2022-11-13T04:50:14;58.90;;;16.90;;
21810;SDS011;11067;48.788;9.208;2022-11-13T04:52:40;28.80;;;14.20;;
21810;SDS011;11067;48.788;9.208;2022-11-13T04:55:07;31.70;;;15.03;;
21810;SDS011;11067;48.788;9.208;2022-11-13T04:57:33;33.90;;;15.13;;
21810;SDS011;11067;48.788;9.208;2022-11-13T04:59:59;29.80;;;15.07;;
21810;SDS011;11067;48.788;9.208;2022-11-13T05:02:25;32.92;;;15.38;;
21810;SDS011;11067;48.788;9.208;2022-11-13T05:04:51;29.13;;;15.32;;
21810;SDS011;11067;48.788;9.208;2022-11-13T05:07:17;40.75;;;15.82;;
21810;SDS011;11067;48.788;9.208;2022-11-13T05:09:43;42.03;;;15.70;;
21810;SDS011;11067;48.788;9.208;2022-11-13T05:12:09;24.77;;;13.90;;
21810;SDS011;11067;48.788;9.208;2022-11-13T05:14:36;30.15;;;14.18;;
21810;SDS011;11067;48.788;9.208;2022-11-13T05:17:02;34.53;;;14.20;;
21810;SDS011;11067;48.788;9.208;2022-11-13T05:19:28;24.08;;;14.18;;
21810;SDS011;11067;48.788;9.208;2022-11-13T05:21:54;29.50;;;14.77;;
21810;SDS011;11067;48.788;9.208;2022-11-13T05:24:20;31.67;;;14.00;;
21810;SDS011;11067;48.788;9.208;2022-11-13T05:26:46;23.00;;;12.77;;
21810;SDS011;11067;48.788;9.208;2022-11-13T05:29:12;39.80;;;15.75;;
21810;SDS011;11067;48.788;9.208;2022-11-13T05:31:38;35.78;;;13.68;;
21810;SDS011;11067;48.788;9.208;2022-11-13T05:34:04;52.40;;;15.23;;
21810;SDS011;11067;48.788;9.208;2022-11-13T05:36:30;39.10;;;15.00;;
21810;SDS011;11067;48.788;9.208;2022-11-13T05:38:56;42.50;;;14.88;;
21810;SDS011;11067;48.788;9.208;2022-11-13T05:41:22;27.42;;;13.65;;
21810;SDS011;11067;48.788;9.208;2022-11-13T05:43:48;24.30;;;13.10;;
21810;SDS011;11067;48.788;9.208;2022-11-13T05:46:16;21.27;;;11.53;;
21810;SDS011;11067;48.788;9.208;2022-11-13T05:48:42;18.45;;;10.88;;
21810;SDS011;11067;48.788;9.208;2022-11-13T05:51:09;19.67;;;10.90;;
21810;SDS011;11067;48.788;9.208;2022-11-13T05:53:35;18.67;;;11.47;;
21810;SDS011;11067;48.788;9.208;2022-11-13T05:56:02;21.05;;;12.60;;
21810;SDS011;11067;48.788;9.208;2022-11-13T05:58:29;19.30;;;11.38;;
21810;SDS011;11067;48.788;9.208;2022-11-13T06:01:05;17.88;;;11.75;;
21810;SDS011;11067;48.788;9.208;2022-11-13T06:03:31;19.67;;;11.45;;
21810;SDS011;11067;48.788;9.208;2022-11-13T06:05:57;18.73;;;10.65;;
21810;SDS011;11067;48.788;9.208;2022-11-13T06:08:23;19.10;;;11.45;;
21810;SDS011;11067;48.788;9.208;2022-11-13T06:10:49;18.80;;;10.93;;
21810;SDS011;11067;48.788;9.208;2022-11-13T06:13:15;21.00;;;11.05;;
21810;SDS011;11067;48.788;9.208;2022-11-13T06:15:41;15.82;;;10.43;;
21810;SDS011;11067;48.788;9.208;2022-11-13T06:18:07;17.40;;;10.60;;
21810;SDS011;11067;48.788;9.208;2022-11-13T06:20:34;18.75;;;10.68;;
21810;SDS011;11067;48.788;9.208;2022-11-13T06:23:00;13.90;;;9.95;;
21810;SDS011;11067;48.788;9.208;2022-11-13T06:25:26;14.88;;;9.82;;
21810;SDS011;11067;48.788;9.208;2022-11-13T06:27:52;16.50;;;10.55;;
21810;SDS011;11067;48.788;9.208;2022-11-13T06:30:19;15.48;;;9.77;;
21810;SDS011;11067;48.788;9.208;2022-11-13T06:32:51;18.40;;;10.63;;
21810;SDS011;11067;48.788;9.208;2022-11-13T06:35:17;16.35;;;10.10;;
21810;SDS011;11067;48.788;9.208;2022-11-13T06:37:43;17.57;;;10.67;;
21810;SDS011;11067;48.788;9.208;2022-11-13T06:40:09;17.60;;;10.23;;
21810;SDS011;11067;48.788;9.208;2022-11-13T06:42:36;19.77;;;10.10;;
21810;SDS011;11067;48.788;9.208;2022-11-13T06:45:01;15.75;;;9.52;;
21810;SDS011;11067;48.788;9.208;2022-11-13T06:47:27;18.83;;;10.48;;
21810;SDS011;11067;48.788;9.208;2022-11-13T06:49:53;16.33;;;10.52;;
21810;SDS011;11067;48.788;9.208;2022-11-13T06:52:19;14.83;;;9.90;;
21810;SDS011;11067;48.788;9.208;2022-11-13T06:54:47;15.77;;;10.30;;
21810;SDS011;11067;48.788;9.208;2022-11-13T06:57:13;15.07;;;9.32;;
21810;SDS011;11067;48.788;9.208;2022-11-13T06:59:39;14.48;;;9.20;;
21810;SDS011;11067;48.788;9.208;2022-11-13T07:02:07;13.27;;;9.57;;
21810;SDS011;11067;48.788;9.208;2022-11-13T07:04:33;14.02;;;9.13;;
21810;SDS011;11067;48.788;9.208;2022-11-13T07:06:59;18.50;;;9.33;;
21810;SDS011;11067;48.788;9.208;2022-11-13T07:09:25;20.42;;;10.38;;
21810;SDS011;11067;48.788;9.208;2022-11-13T07:11:51;15.15;;;9.25;;
21810;SDS011;11067;48.788;9.208;2022-11-13T07:14:17;11.50;;;8.63;;
21810;SDS011;11067;48.788;9.208;2022-11-13T07:16:43;12.07;;;8.50;;
21810;SDS011;11067;48.788;9.208;2022-11-13T07:19:09;17.25;;;9.27;;
21810;SDS011;11067;48.788;9.208;2022-11-13T07:21:35;33.70;;;9.77;;
21810;SDS011;11067;48.788;9.208;2022-11-13T07:24:01;21.83;;;9.85;;
21810;SDS011;11067;48.788;9.208;2022-11-13T07:26:27;14.68;;;8.98;;
21810;SDS011;11067;48.788;9.208;2022-11-13T07:28:53;17.73;;;8.77;;
21810;SDS011;11067;48.788;9.208;2022-11-13T07:31:19;19.30;;;9.50;;
21810;SDS011;11067;48.788;9.208;2022-11-13T07:33:46;82.90;;;16.58;;
21810;SDS011;11067;48.788;9.208;2022-11-13T07:36:12;47.90;;;12.32;;
21810;SDS011;11067;48.788;9.208;2022-11-13T07:38:38;22.87;;;10.20;;
21810;SDS011;11067;48.788;9.208;2022-11-13T07:41:04;19.05;;;9.65;;
21810;SDS011;11067;48.788;9.208;2022-11-13T07:43:30;18.95;;;9.85;;
21810;SDS011;11067;48.788;9.208;2022-11-13T07:45:57;83.30;;;15.53;;
21810;SDS011;11067;48.788;9.208;2022-11-13T07:48:23;27.70;;;11.10;;
21810;SDS011;11067;48.788;9.208;2022-11-13T07:50:49;33.88;;;11.30;;
21810;SDS011;11067;48.788;9.208;2022-11-13T07:53:15;30.42;;;10.55;;
21810;SDS011;11067;48.788;9.208;2022-11-13T07:55:41;23.48;;;10.30;;
21810;SDS011;11067;48.788;9.208;2022-11-13T07:58:07;44.72;;;12.18;;
21810;SDS011;11067;48.788;9.208;2022-11-13T08:00:34;44.65;;;13.57;;
21810;SDS011;11067;48.788;9.208;2022-11-13T08:03:04;44.97;;;11.80;;
21810;SDS011;11067;48.788;9.208;2022-11-13T08:05:30;27.98;;;9.68;;
21810;SDS011;11067;48.788;9.208;2022-11-13T08:07:56;18.85;;;9.80;;
21810;SDS011;11067;48.788;9.208;2022-11-13T08:10:22;19.75;;;9.30;;
21810;SDS011;11067;48.788;9.208;2022-11-13T08:12:48;62.50;;;13.10;;
21810;SDS011;11067;48.788;9.208;2022-11-13T08:15:14;77.23;;;14.70;;
21810;SDS011;11067;48.788;9.208;2022-11-13T08:17:40;22.13;;;9.20;;
21810;SDS011;11067;48.788;9.208;2022-11-13T08:20:06;15.25;;;8.80;;
21810;SDS011;11067;48.788;9.208;2022-11-13T08:22:33;27.40;;;11.18;;
21810;SDS011;11067;48.788;9.208;2022-11-13T08:24:59;28.37;;;14.83;;
21810;SDS011;11067;48.788;9.208;2022-11-13T08:27:25;18.52;;;9.68;;
21810;SDS011;11067;48.788;9.208;2022-11-13T08:29:51;15.43;;;9.75;;
21810;SDS011;11067;48.788;9.208;2022-11-13T08:32:17;14.07;;;8.77;;
21810;SDS011;11067;48.788;9.208;2022-11-13T08:34:44;19.13;;;9.52;;
21810;SDS011;11067;48.788;9.208;2022-11-13T08:37:10;11.73;;;9.27;;
21810;SDS011;11067;48.788;9.208;2022-11-13T08:39:36;15.80;;;8.98;;
21810;SDS011;11067;48.788;9.208;2022-11-13T08:42:02;12.95;;;8.25;;
21810;SDS011;11067;48.788;9.208;2022-11-13T08:44:29;13.27;;;8.63;;
21810;SDS011;11067;48.788;9.208;2022-11-13T08:46:55;12.55;;;8.45;;
21810;SDS011;11067;48.788;9.208;2022-11-13T08:49:21;13.20;;;9.48;;
21810;SDS011;11067;48.788;9.208;2022-11-13T08:51:47;12.70;;;8.73;;
21810;SDS011;11067;48.788;9.208;2022-11-13T08:54:13;12.60;;;9.07;;
21810;SDS011;11067;48.788;9.208;2022-11-13T08:56:38;12.10;;;8.60;;
21810;SDS011;11067;48.788;9.208;2022-11-13T08:59:04;15.13;;;8.73;;
21810;SDS011;11067;48.788;9.208;2022-11-13T09:01:30;13.95;;;8.52;;
21810;SDS011;11067;48.788;9.208;2022-11-13T09:03:56;10.65;;;7.40;;
21810;SDS011;11067;48.788;9.208;2022-11-13T09:06:23;11.20;;;8.25;;
21810;SDS011;11067;48.788;9.208;2022-11-13T09:08:49;10.23;;;7.63;;
21810;SDS011;11067;48.788;9.208;2022-11-13T09:11:15;11.32;;;8.70;;
21810;SDS011;11067;48.788;9.208;2022-11-13T09:13:41;11.67;;;7.70;;
21810;SDS011;11067;48.788;9.208;2022-11-13T09:16:07;12.55;;;8.18;;
21810;SDS011;11067;48.788;9.208;2022-11-13T09:18:33;10.38;;;7.68;;
21810;SDS011;11067;48.788;9.208;2022-11-13T09:20:59;11.40;;;8.10;;
21810;SDS011;11067;48.788;9.208;2022-11-13T09:23:26;11.85;;;8.10;;
21810;SDS011;11067;48.788;9.208;2022-11-13T09:25:52;12.70;;;8.23;;
21810;SDS011;11067;48.788;9.208;2022-11-13T09:28:18;11.15;;;8.32;;
21810;SDS011;11067;48.788;9.208;2022-11-13T09:30:44;10.67;;;7.93;;
21810;SDS011;11067;48.788;9.208;2022-11-13T09:33:11;12.38;;;8.23;;
21810;SDS011;11067;48.788;9.208;2022-11-13T09:35:39;10.57;;;7.90;;
21810;SDS011;11067;48.788;9.208;2022-11-13T09:38:07;10.43;;;7.33;;
21810;SDS011;11067;48.788;9.208;2022-11-13T09:40:38;10.35;;;7.40;;
21810;SDS011;11067;48.788;9.208;2022-11-13T09:43:09;9.68;;;7.30;;
21810;SDS011;11067;48.788;9.208;2022-11-13T09:45:36;10.45;;;8.02;;
21810;SDS011;11067;48.788;9.208;2022-11-13T09:48:26;10.80;;;8.05;;
21810;SDS011;11067;48.788;9.208;2022-11-13T09:50:50;11.82;;;7.97;;
21810;SDS011;11067;48.788;9.208;2022-11-13T09:53:16;9.30;;;7.50;;
21810;SDS011;11067;48.788;9.208;2022-11-13T09:56:05;10.27;;;7.30;;
21810;SDS011;11067;48.788;9.208;2022-11-13T10:00:58;10.48;;;7.78;;
21810;SDS011;11067;48.788;9.208;2022-11-13T10:03:30;9.80;;;7.93;;
21810;SDS011;11067;48.788;9.208;2022-11-13T10:06:12;11.75;;;8.57;;
21810;SDS011;11067;48.788;9.208;2022-11-13T10:13:53;11.50;;;8.43;;
21810;SDS011;11067;48.788;9.208;2022-11-13T10:18:55;10.55;;;8.38;;
21810;SDS011;11067;48.788;9.208;2022-11-13T10:21:32;11.18;;;8.63;;
21810;SDS011;11067;48.788;9.208;2022-11-13T10:24:03;11.10;;;8.23;;
21810;SDS011;11067;48.788;9.208;2022-11-13T10:26:30;12.10;;;8.93;;
21810;SDS011;11067;48.788;9.208;2022-11-13T10:29:15;12.70;;;8.77;;
21810;SDS011;11067;48.788;9.208;2022-11-13T10:34:07;13.63;;;9.03;;
21810;SDS011;11067;48.788;9.208;2022-11-13T10:39:17;10.80;;;7.87;;
21810;SDS011;11067;48.788;9.208;2022-11-13T10:41:44;9.95;;;7.80;;
21810;SDS011;11067;48.788;9.208;2022-11-13T10:44:24;10.98;;;8.15;;
21810;SDS011;11067;48.788;9.208;2022-11-13T10:47:02;11.80;;;8.35;;
21810;SDS011;11067;48.788;9.208;2022-11-13T10:49:28;11.70;;;8.48;;
21810;SDS011;11067;48.788;9.208;2022-11-13T10:51:54;11.82;;;8.77;;
21810;SDS011;11067;48.788;9.208;2022-11-13T10:54:24;10.63;;;8.30;;
21810;SDS011;11067;48.788;9.208;2022-11-13T10:57:00;12.82;;;8.77;;
21810;SDS011;11067;48.788;9.208;2022-11-13T10:59:36;10.30;;;7.85;;
21810;SDS011;11067;48.788;9.208;2022-11-13T11:02:18;10.13;;;8.02;;
21810;SDS011;11067;48.788;9.208;2022-11-13T11:04:46;12.43;;;8.07;;
21810;SDS011;11067;48.788;9.208;2022-11-13T11:07:17;11.25;;;8.38;;
21810;SDS011;11067;48.788;9.208;2022-11-13T11:09:43;12.43;;;9.23;;
21810;SDS011;11067;48.788;9.208;2022-11-13T11:12:13;11.68;;;8.90;;
21810;SDS011;11067;48.788;9.208;2022-11-13T11:17:08;12.30;;;8.85;;
21810;SDS011;11067;48.788;9.208;2022-11-13T11:19:36;10.83;;;8.37;;
21810;SDS011;11067;48.788;9.208;2022-11-13T11:22:07;12.18;;;8.30;;
21810;SDS011;11067;48.788;9.208;2022-11-13T11:24:35;11.87;;;8.80;;
21810;SDS011;11067;48.788;9.208;2022-11-13T11:27:04;10.40;;;8.20;;
21810;SDS011;11067;48.788;9.208;2022-11-13T11:29:36;12.00;;;8.30;;
21810;SDS011;11067;48.788;9.208;2022-11-13T11:32:15;11.77;;;8.70;;
21810;SDS011;11067;48.788;9.208;2022-11-13T11:34:46;10.68;;;8.50;;
21810;SDS011;11067;48.788;9.208;2022-11-13T11:37:14;10.20;;;8.10;;
21810;SDS011;11067;48.788;9.208;2022-11-13T11:39:42;12.32;;;8.52;;
21810;SDS011;11067;48.788;9.208;2022-11-13T11:42:23;10.63;;;8.52;;
21810;SDS011;11067;48.788;9.208;2022-11-13T11:45:04;9.90;;;8.13;;
21810;SDS011;11067;48.788;9.208;2022-11-13T11:47:33;11.55;;;8.30;;
21810;SDS011;11067;48.788;9.208;2022-11-13T11:50:00;11.53;;;8.83;;
21810;SDS011;11067;48.788;9.208;2022-11-13T11:52:40;11.27;;;8.95;;
21810;SDS011;11067;48.788;9.208;2022-11-13T11:57:57;11.93;;;8.93;;
21810;SDS011;11067;48.788;9.208;2022-11-13T12:00:24;12.68;;;8.70;;
21810;SDS011;11067;48.788;9.208;2022-11-13T12:05:41;11.93;;;8.70;;
21810;SDS011;11067;48.788;9.208;2022-11-13T12:10:59;12.90;;;9.13;;
21810;SDS011;11067;48.788;9.208;2022-11-13T12:13:30;12.53;;;9.43;;
21810;SDS011;11067;48.788;9.208;2022-11-13T12:15:59;12.18;;;9.25;;
21810;SDS011;11067;48.788;9.208;2022-11-13T12:20:57;12.35;;;8.98;;
21810;SDS011;11067;48.788;9.208;2022-11-13T12:26:44;11.93;;;8.48;;
21810;SDS011;11067;48.788;9.208;2022-11-13T12:29:23;12.55;;;9.68;;
21810;SDS011;11067;48.788;9.208;2022-11-13T12:34:42;12.48;;;9.25;;
21810;SDS011;11067;48.788;9.208;2022-11-13T12:37:13;14.25;;;9.32;;
21810;SDS011;11067;48.788;9.208;2022-11-13T12:39:56;11.80;;;8.97;;
21810;SDS011;11067;48.788;9.208;2022-11-13T12:47:34;11.57;;;8.57;;
21810;SDS011;11067;48.788;9.208;2022-11-13T12:50:03;11.07;;;8.35;;
21810;SDS011;11067;48.788;9.208;2022-11-13T12:52:30;11.10;;;8.27;;
21810;SDS011;11067;48.788;9.208;2022-11-13T12:55:23;11.52;;;8.65;;
21810;SDS011;11067;48.788;9.208;2022-11-13T12:57:49;10.32;;;8.15;;
21810;SDS011;11067;48.788;9.208;2022-11-13T13:00:27;12.18;;;8.45;;
21810;SDS011;11067;48.788;9.208;2022-11-13T13:05:38;10.45;;;7.80;;
21810;SDS011;11067;48.788;9.208;2022-11-13T13:10:49;10.87;;;8.17;;
21810;SDS011;11067;48.788;9.208;2022-11-13T13:18:03;11.00;;;8.50;;
21810;SDS011;11067;48.788;9.208;2022-11-13T13:20:35;15.68;;;8.32;;
21810;SDS011;11067;48.788;9.208;2022-11-13T13:23:03;9.60;;;7.93;;
21810;SDS011;11067;48.788;9.208;2022-11-13T13:25:30;11.73;;;8.35;;
21810;SDS011;11067;48.788;9.208;2022-11-13T13:30:24;10.77;;;7.43;;
21810;SDS011;11067;48.788;9.208;2022-11-13T13:36:03;10.23;;;7.17;;
21810;SDS011;11067;48.788;9.208;2022-11-13T13:38:52;9.87;;;7.50;;
21810;SDS011;11067;48.788;9.208;2022-11-13T13:41:32;9.45;;;7.38;;
21810;SDS011;11067;48.788;9.208;2022-11-13T13:44:21;8.57;;;6.97;;
21810;SDS011;11067;48.788;9.208;2022-11-13T13:46:48;11.13;;;7.22;;
21810;SDS011;11067;48.788;9.208;2022-11-13T13:49:17;10.60;;;7.75;;
21810;SDS011;11067;48.788;9.208;2022-11-13T13:51:45;10.40;;;7.85;;
21810;SDS011;11067;48.788;9.208;2022-11-13T13:54:15;9.93;;;7.80;;
21810;SDS011;11067;48.788;9.208;2022-11-13T13:56:47;9.02;;;7.38;;
21810;SDS011;11067;48.788;9.208;2022-11-13T13:59:19;9.85;;;7.97;;
21810;SDS011;11067;48.788;9.208;2022-11-13T14:01:53;9.65;;;7.85;;
21810;SDS011;11067;48.788;9.208;2022-11-13T14:04:25;11.10;;;7.80;;
21810;SDS011;11067;48.788;9.208;2022-11-13T14:06:55;11.20;;;8.20;;
21810;SDS011;11067;48.788;9.208;2022-11-13T14:09:23;11.90;;;8.45;;
21810;SDS011;11067;48.788;9.208;2022-11-13T14:12:00;11.85;;;8.27;;
21810;SDS011;11067;48.788;9.208;2022-11-13T14:14:28;11.10;;;8.50;;
21810;SDS011;11067;48.788;9.208;2022-11-13T14:16:54;10.43;;;7.82;;
21810;SDS011;11067;48.788;9.208;2022-11-13T14:19:22;9.30;;;7.47;;
21810;SDS011;11067;48.788;9.208;2022-11-13T14:21:52;11.60;;;8.10;;
21810;SDS011;11067;48.788;9.208;2022-11-13T14:27:00;11.13;;;8.48;;
21810;SDS011;11067;48.788;9.208;2022-11-13T14:31:54;10.57;;;7.68;;
21810;SDS011;11067;48.788;9.208;2022-11-13T14:34:27;12.30;;;8.60;;
21810;SDS011;11067;48.788;9.208;2022-11-13T14:36:54;10.40;;;8.10;;
21810;SDS011;11067;48.788;9.208;2022-11-13T14:39:22;11.48;;;8.05;;
21810;SDS011;11067;48.788;9.208;2022-11-13T14:41:57;9.73;;;7.97;;
21810;SDS011;11067;48.788;9.208;2022-11-13T14:44:28;10.63;;;7.88;;
21810;SDS011;11067;48.788;9.208;2022-11-13T14:47:00;10.02;;;8.00;;
21810;SDS011;11067;48.788;9.208;2022-11-13T14:49:43;10.52;;;8.13;;
21810;SDS011;11067;48.788;9.208;2022-11-13T14:52:18;8.80;;;7.50;;
21810;SDS011;11067;48.788;9.208;2022-11-13T14:54:45;9.80;;;8.02;;
21810;SDS011;11067;48.788;9.208;2022-11-13T14:57:11;11.38;;;8.02;;
21810;SDS011;11067;48.788;9.208;2022-11-13T14:59:38;11.50;;;8.30;;
21810;SDS011;11067;48.788;9.208;2022-11-13T15:02:09;10.93;;;7.93;;
21810;SDS011;11067;48.788;9.208;2022-11-13T15:04:36;12.93;;;8.65;;
21810;SDS011;11067;48.788;9.208;2022-11-13T15:07:02;10.43;;;8.27;;
21810;SDS011;11067;48.788;9.208;2022-11-13T15:09:42;12.02;;;8.10;;
21810;SDS011;11067;48.788;9.208;2022-11-13T15:12:11;10.07;;;7.90;;
21810;SDS011;11067;48.788;9.208;2022-11-13T15:14:37;13.53;;;8.77;;
21810;SDS011;11067;48.788;9.208;2022-11-13T15:17:06;10.93;;;7.90;;
21810;SDS011;11067;48.788;9.208;2022-11-13T15:19:37;10.80;;;8.13;;
21810;SDS011;11067;48.788;9.208;2022-11-13T15:22:04;11.33;;;8.73;;
21810;SDS011;11067;48.788;9.208;2022-11-13T15:24:34;11.43;;;8.80;;
21810;SDS011;11067;48.788;9.208;2022-11-13T15:27:00;16.02;;;8.88;;
21810;SDS011;11067;48.788;9.208;2022-11-13T15:29:26;16.63;;;9.27;;
21810;SDS011;11067;48.788;9.208;2022-11-13T15:31:51;14.23;;;9.80;;
21810;SDS011;11067;48.788;9.208;2022-11-13T15:34:17;15.73;;;11.00;;
21810;SDS011;11067;48.788;9.208;2022-11-13T15:36:42;13.60;;;9.20;;